KNKX/NKX METAR and TAF weather

Enter ICAO airport designator
Station Type Date Time Source
KNKX METAR 2020/01/24 20:55 UTC NOAA

KNKX 242055Z 30005KT 10SM CLR 20/12 A2998 RMK AO2 SLP149 T02000117 58018 $


Station Type Date Time Source
KNKX Decoded METAR 2020/01/24 20:55 UTC NOAA

MCAS MIRAMAR, CA, United States (KNKX) 32-52N 117-09W 146M
Jan 24, 2020 - 03:55 PM EST / 2020.01.24 2055 UTC
Wind: from the WNW (300 degrees) at 6 MPH (5 KT):0
Visibility: 10 mile(s):0
Sky conditions: clear
Temperature: 68.0 F (20.0 C)
Dew Point: 53.1 F (11.7 C)
Relative Humidity: 58%
Pressure (altimeter): 29.98 in. Hg (1015 hPa)
Pressure tendency: 0.05 inches (1.8 hPa) lower than three hours ago
ob: KNKX 242055Z 30005KT 10SM CLR 20/12 A2998 RMK AO2 SLP149 T02000117 58018
cycle: 21

Station Type Date Time Source
KNKX TAF 2020/01/24 21:11 UTC NOAA

TAF KNKX 2421/2521 29006KT 9999 SKC QNH2993INS
FM250230 VRB05KT 9999 FEW015 QNH2995INS
TEMPO 2505/2509 6000 BR BKN007
TEMPO 2509/2515 0800 FG OVC003 T09/2512Z T23/2521Z

Example: see airport list